createdAt,value
2018-04-24T00:02:21.528Z,4.87
2018-04-24T00:04:50.210Z,4.47
2018-04-24T00:07:18.428Z,6.33
2018-04-24T00:09:46.693Z,4.87
2018-04-24T00:12:15.487Z,10.73
2018-04-24T00:14:43.721Z,5.00
2018-04-24T00:17:11.918Z,7.80
2018-04-24T00:19:40.549Z,6.10
2018-04-24T00:22:08.778Z,7.17
2018-04-24T00:24:36.985Z,4.60
2018-04-24T00:27:05.687Z,3.97
2018-04-24T00:29:33.920Z,4.03
2018-04-24T00:32:02.121Z,4.40
2018-04-24T00:34:30.963Z,5.00
2018-04-24T00:36:59.183Z,5.77
2018-04-24T00:39:27.373Z,5.07
2018-04-24T00:41:56.168Z,6.40
2018-04-24T00:44:24.405Z,5.53
2018-04-24T00:46:52.599Z,7.73
2018-04-24T00:49:21.160Z,11.27
2018-04-24T00:51:49.400Z,8.47
2018-04-24T00:54:17.618Z,6.70
2018-04-24T00:56:46.333Z,4.87
2018-04-24T00:59:14.667Z,9.33
2018-04-24T01:01:42.858Z,7.00
2018-04-24T01:04:11.539Z,5.50
2018-04-24T01:06:39.817Z,6.37
2018-04-24T01:09:08.788Z,6.50
2018-04-24T01:11:37.242Z,7.73
2018-04-24T01:14:05.928Z,9.43
2018-04-24T01:16:34.167Z,5.23
2018-04-24T01:19:02.397Z,7.97
2018-04-24T01:21:31.270Z,8.80
2018-04-24T01:23:59.461Z,5.70
2018-04-24T01:26:28.193Z,11.20
2018-04-24T01:28:56.790Z,8.80
2018-04-24T01:31:25.008Z,6.73
2018-04-24T01:33:53.444Z,7.20
2018-04-24T01:36:21.912Z,6.63
2018-04-24T01:38:50.141Z,5.77
2018-04-24T01:41:18.563Z,4.53
2018-04-24T01:43:47.253Z,4.47
2018-04-24T01:46:15.472Z,6.67
2018-04-24T01:48:43.745Z,7.37
2018-04-24T01:51:12.407Z,6.10
2018-04-24T01:53:40.609Z,6.00
2018-04-24T01:56:09.024Z,5.53
2018-04-24T01:58:37.620Z,4.27
2018-04-24T02:01:05.819Z,6.20
2018-04-24T02:03:34.084Z,4.87
2018-04-24T02:06:02.803Z,8.57
2018-04-24T02:08:31.004Z,4.40
2018-04-24T02:10:59.343Z,4.70
2018-04-24T02:13:28.069Z,6.17
2018-04-24T02:15:56.274Z,4.90
2018-04-24T02:18:24.450Z,7.30
2018-04-24T02:20:53.051Z,6.10
2018-04-24T02:23:21.256Z,10.20
2018-04-24T02:25:49.565Z,6.10
2018-04-24T02:28:18.266Z,6.27
2018-04-24T02:30:46.527Z,5.43
2018-04-24T02:33:14.749Z,6.40
2018-04-24T02:35:43.294Z,8.00
2018-04-24T02:38:11.497Z,8.00
2018-04-24T02:40:39.980Z,8.47
2018-04-24T02:43:08.497Z,8.20
2018-04-24T02:45:36.699Z,5.40
2018-04-24T02:48:05.065Z,6.67
2018-04-24T02:50:33.844Z,7.27
2018-04-24T02:53:01.984Z,6.70
2018-04-24T02:55:30.161Z,7.40
2018-04-24T02:57:58.926Z,6.90
2018-04-24T03:00:27.150Z,5.13
2018-04-24T03:02:55.374Z,10.67
2018-04-24T03:05:38.243Z,7.23
2018-04-24T03:08:11.785Z,5.20
2018-04-24T03:10:40.539Z,7.07
2018-04-24T03:13:09.219Z,6.97
2018-04-24T03:15:37.456Z,6.97
2018-04-24T03:18:05.768Z,7.40
2018-04-24T03:20:34.493Z,9.77
2018-04-24T03:23:02.742Z,9.07
2018-04-24T03:25:31.053Z,9.77
2018-04-24T03:27:59.639Z,7.10
2018-04-24T03:30:27.879Z,6.37
2018-04-24T03:32:56.130Z,7.27
2018-04-24T03:35:24.667Z,5.23
2018-04-24T03:37:52.850Z,7.07
2018-04-24T03:40:21.280Z,7.30
2018-04-24T03:42:49.902Z,8.50
2018-04-24T03:45:18.088Z,7.80
2018-04-24T03:47:46.534Z,8.60
2018-04-24T03:50:15.079Z,5.57
2018-04-24T03:52:43.289Z,8.03
2018-04-24T03:55:11.674Z,9.23
2018-04-24T03:57:40.153Z,7.37
2018-04-24T04:00:08.379Z,10.70
2018-04-24T04:02:36.781Z,7.17
2018-04-24T04:05:05.463Z,12.00
2018-04-24T04:07:33.682Z,9.40
2018-04-24T04:10:02.073Z,6.70
2018-04-24T04:12:30.689Z,5.30
2018-04-24T04:14:58.895Z,8.07
2018-04-24T04:17:40.111Z,9.13
2018-04-24T04:20:20.771Z,11.97
2018-04-24T04:23:00.970Z,7.07
2018-04-24T04:25:29.184Z,6.03
2018-04-24T04:27:57.393Z,7.27
2018-04-24T04:30:25.899Z,5.63
2018-04-24T04:32:54.188Z,8.70
2018-04-24T04:35:22.479Z,9.33
2018-04-24T04:37:51.041Z,8.33
2018-04-24T04:40:19.247Z,8.07
2018-04-24T04:42:47.538Z,9.40
2018-04-24T04:45:16.263Z,10.47
2018-04-24T04:48:02.620Z,8.53
2018-04-24T04:50:36.232Z,6.33
2018-04-24T04:53:04.459Z,7.53
2018-04-24T04:55:33.195Z,10.23
2018-04-24T04:58:01.928Z,7.23
2018-04-24T05:00:30.232Z,10.73
2018-04-24T05:02:58.581Z,9.23
2018-04-24T05:05:27.450Z,7.13
2018-04-24T05:07:55.654Z,13.07
2018-04-24T05:10:23.843Z,6.80
2018-04-24T05:12:52.478Z,8.23
2018-04-24T05:15:20.714Z,6.27
2018-04-24T05:17:48.921Z,10.33
2018-04-24T05:20:17.557Z,5.20
2018-04-24T05:22:45.807Z,6.33
2018-04-24T05:25:14.009Z,5.10
2018-04-24T05:27:43.417Z,6.27
2018-04-24T05:30:12.310Z,5.90
2018-04-24T05:32:40.521Z,5.93
2018-04-24T05:35:08.722Z,4.93
2018-04-24T05:37:37.440Z,6.47
2018-04-24T05:40:05.659Z,5.53
2018-04-24T05:42:33.897Z,7.57
2018-04-24T05:45:02.498Z,6.33
2018-04-24T05:47:30.714Z,5.83
2018-04-24T05:49:59.026Z,8.93
2018-04-24T05:52:27.738Z,9.27
2018-04-24T05:54:55.899Z,7.47
2018-04-24T05:57:25.702Z,7.83
2018-04-24T05:59:54.646Z,4.93
2018-04-24T06:02:25.891Z,6.30
2018-04-24T06:04:57.547Z,6.10
2018-04-24T06:07:27.550Z,9.00
2018-04-24T06:10:02.519Z,6.23
2018-04-24T06:12:36.371Z,8.67
2018-04-24T06:15:04.989Z,5.70
2018-04-24T06:17:33.257Z,10.60
2018-04-24T06:20:01.786Z,9.70
2018-04-24T06:22:33.003Z,6.03
2018-04-24T06:25:02.920Z,5.60
2018-04-24T06:27:33.622Z,6.00
2018-04-24T06:30:03.391Z,5.73
2018-04-24T06:32:31.837Z,7.40
2018-04-24T06:35:00.061Z,9.93
2018-04-24T06:37:28.850Z,6.50
2018-04-24T06:39:57.469Z,7.73
2018-04-24T06:42:25.689Z,7.60
2018-04-24T06:44:53.953Z,7.83
2018-04-24T06:47:22.533Z,16.00
2018-04-24T06:49:51.953Z,6.23
2018-04-24T06:52:20.132Z,5.57
2018-04-24T06:54:48.345Z,7.63
2018-04-24T06:57:16.560Z,4.70
2018-04-24T06:59:44.890Z,6.90
2018-04-24T07:02:13.594Z,5.37
2018-04-24T07:04:41.805Z,7.47
2018-04-24T07:07:09.996Z,7.43
2018-04-24T07:09:38.589Z,5.57
2018-04-24T07:12:06.789Z,6.60
2018-04-24T07:14:34.992Z,7.70
2018-04-24T07:17:03.672Z,8.23
2018-04-24T07:19:31.884Z,23.23
2018-04-24T07:22:00.187Z,10.07
2018-04-24T07:24:28.680Z,8.97
2018-04-24T07:26:56.880Z,5.40
2018-04-24T07:29:25.101Z,6.40
2018-04-24T07:31:53.815Z,10.10
2018-04-24T07:34:22.025Z,6.00
2018-04-24T07:36:50.247Z,11.53
2018-04-24T07:39:18.937Z,10.63
2018-04-24T07:41:47.133Z,8.63
2018-04-24T07:44:15.343Z,7.03
2018-04-24T07:46:44.080Z,12.47
2018-04-24T07:49:12.296Z,8.70
2018-04-24T07:51:40.513Z,4.93
2018-04-24T07:54:09.133Z,7.70
2018-04-24T07:56:37.914Z,7.23
2018-04-24T07:59:06.260Z,12.00
2018-04-24T08:01:34.967Z,5.17
2018-04-24T08:04:03.166Z,6.67
2018-04-24T08:06:31.468Z,10.23
2018-04-24T08:08:59.974Z,8.37
2018-04-24T08:11:28.206Z,10.20
2018-04-24T08:13:56.606Z,4.97
2018-04-24T08:16:25.114Z,8.57
2018-04-24T08:18:53.344Z,11.30
2018-04-24T08:21:21.637Z,10.77
2018-04-24T08:23:50.140Z,18.67
2018-04-24T08:26:18.463Z,6.73
2018-04-24T08:28:46.724Z,10.40
2018-04-24T08:31:15.316Z,10.37
2018-04-24T08:33:43.563Z,7.27
2018-04-24T08:36:11.934Z,8.43
2018-04-24T08:38:40.401Z,10.67
2018-04-24T08:41:08.604Z,8.33
2018-04-24T08:43:36.899Z,8.10
2018-04-24T08:46:05.591Z,9.23
2018-04-24T08:48:33.829Z,9.90
2018-04-24T08:51:02.085Z,7.17
2018-04-24T08:53:30.631Z,9.57
2018-04-24T08:55:58.890Z,9.67
2018-04-24T08:58:27.167Z,12.10
2018-04-24T09:00:55.792Z,9.67
2018-04-24T09:03:23.997Z,10.93
2018-04-24T09:05:52.348Z,13.47
2018-04-24T09:08:20.787Z,10.20
2018-04-24T09:10:49.026Z,9.03
2018-04-24T09:13:17.339Z,11.87
2018-04-24T09:15:46.412Z,10.77
2018-04-24T09:18:14.640Z,14.07
2018-04-24T09:20:42.898Z,10.77
2018-04-24T09:23:11.538Z,10.77
2018-04-24T09:25:39.763Z,11.07
2018-04-24T09:28:07.976Z,16.43
2018-04-24T09:30:36.589Z,15.30
2018-04-24T09:33:04.842Z,14.53
2018-04-24T09:35:33.074Z,10.50
2018-04-24T09:38:01.679Z,13.13
2018-04-24T09:40:29.896Z,17.63
2018-04-24T09:42:58.099Z,13.03
2018-04-24T09:45:26.411Z,12.23
2018-04-24T09:47:54.606Z,10.87
2018-04-24T09:50:23.012Z,10.37
2018-04-24T09:52:51.624Z,11.20
2018-04-24T09:55:19.824Z,12.70
2018-04-24T09:57:48.046Z,8.70
2018-04-24T10:00:22.387Z,13.93
2018-04-24T10:02:51.125Z,8.97
2018-04-24T10:05:19.337Z,11.07
2018-04-24T10:07:47.580Z,13.20
2018-04-24T10:10:16.301Z,8.63
2018-04-24T10:12:44.500Z,9.60
2018-04-24T10:15:12.702Z,9.47
2018-04-24T10:17:41.332Z,9.97
2018-04-24T10:20:09.542Z,13.20
2018-04-24T10:22:37.776Z,9.53
2018-04-24T10:25:06.482Z,11.93
2018-04-24T10:27:34.679Z,15.40
2018-04-24T10:30:02.890Z,11.50
2018-04-24T10:32:31.505Z,10.63
2018-04-24T10:34:59.684Z,9.37
2018-04-24T10:37:27.901Z,11.67
2018-04-24T10:39:56.625Z,9.13
2018-04-24T10:42:24.826Z,11.07
2018-04-24T10:44:53.026Z,11.43
2018-04-24T10:47:21.744Z,9.37
2018-04-24T10:49:49.941Z,15.70
2018-04-24T10:52:18.153Z,9.63
2018-04-24T10:54:46.814Z,10.13
2018-04-24T10:57:15.015Z,10.30
2018-04-24T10:59:43.230Z,9.47
2018-04-24T11:02:11.909Z,11.50
2018-04-24T11:04:40.114Z,11.87
2018-04-24T11:07:08.390Z,10.83
2018-04-24T11:09:37.167Z,15.23
2018-04-24T11:12:05.405Z,14.07
2018-04-24T11:14:33.644Z,15.17
2018-04-24T11:17:02.228Z,12.07
2018-04-24T11:19:30.440Z,13.40
2018-04-24T11:21:58.676Z,13.47
2018-04-24T11:24:27.269Z,12.20
2018-04-24T11:26:55.475Z,9.63
2018-04-24T11:29:23.653Z,10.90
2018-04-24T11:31:52.360Z,12.23
2018-04-24T11:34:20.633Z,9.70
2018-04-24T11:36:48.792Z,13.63
2018-04-24T11:39:17.496Z,13.00
2018-04-24T11:41:45.679Z,14.57
2018-04-24T11:44:13.963Z,9.53
2018-04-24T11:46:42.620Z,8.83
2018-04-24T11:49:10.855Z,12.10
2018-04-24T11:51:39.077Z,10.07
2018-04-24T11:54:07.771Z,13.03
2018-04-24T11:56:35.992Z,9.17
2018-04-24T11:59:04.191Z,10.37
2018-04-24T12:01:32.812Z,9.57
2018-04-24T12:04:01.009Z,9.70
2018-04-24T12:06:29.227Z,10.63
2018-04-24T12:08:57.922Z,9.07
2018-04-24T12:11:26.126Z,9.20
2018-04-24T12:13:54.318Z,10.73
2018-04-24T12:16:23.072Z,12.67
2018-04-24T12:18:51.284Z,9.53
2018-04-24T12:21:19.490Z,9.87
2018-04-24T12:23:48.189Z,12.20
2018-04-24T12:26:16.460Z,11.00
2018-04-24T12:28:44.650Z,11.43
2018-04-24T12:31:13.326Z,10.00
2018-04-24T12:33:41.544Z,13.87
2018-04-24T12:36:09.757Z,10.63
2018-04-24T12:38:38.404Z,10.13
2018-04-24T12:41:06.617Z,12.90
2018-04-24T12:43:34.813Z,9.73
2018-04-24T12:46:03.521Z,10.43
2018-04-24T12:48:31.737Z,10.73
2018-04-24T12:50:59.949Z,9.37
2018-04-24T12:53:28.579Z,9.70
2018-04-24T12:55:56.800Z,12.03
2018-04-24T12:58:25.035Z,12.83
2018-04-24T13:00:53.595Z,12.23
2018-04-24T13:03:21.815Z,15.10
2018-04-24T13:05:50.221Z,11.33
2018-04-24T13:08:18.947Z,11.20
2018-04-24T13:10:47.149Z,12.87
2018-04-24T13:13:15.364Z,13.97
2018-04-24T13:15:44.038Z,13.27
2018-04-24T13:18:12.279Z,11.30
2018-04-24T13:20:40.513Z,10.23
2018-04-24T13:23:09.122Z,10.83
2018-04-24T13:25:37.411Z,13.23
2018-04-24T13:28:05.595Z,12.40
2018-04-24T13:30:34.195Z,17.43
2018-04-24T13:33:02.414Z,13.03
2018-04-24T13:35:30.629Z,10.80
2018-04-24T13:37:59.374Z,15.93
2018-04-24T13:40:27.574Z,11.57
2018-04-24T13:42:55.796Z,11.80
2018-04-24T13:45:24.481Z,11.23
2018-04-24T13:47:52.695Z,12.23
2018-04-24T13:50:20.902Z,13.70
2018-04-24T13:52:49.550Z,9.30
2018-04-24T13:55:17.850Z,11.10
2018-04-24T13:57:45.964Z,11.10
2018-04-24T14:00:15.242Z,10.30
2018-04-24T14:02:43.447Z,10.60
2018-04-24T14:05:11.754Z,13.00
2018-04-24T14:07:40.404Z,11.33
2018-04-24T14:10:08.652Z,11.00
2018-04-24T14:12:37.001Z,12.63
2018-04-24T14:15:05.419Z,12.53
2018-04-24T14:17:33.644Z,13.30
2018-04-24T14:20:02.044Z,12.27
2018-04-24T14:22:30.542Z,11.03
2018-04-24T14:24:58.733Z,13.57
2018-04-24T14:27:27.061Z,12.37
2018-04-24T14:29:55.605Z,12.10
2018-04-24T14:32:23.836Z,12.93
2018-04-24T14:34:52.131Z,12.60
2018-04-24T14:37:20.820Z,11.50
2018-04-24T14:39:49.061Z,12.77
2018-04-24T14:42:22.222Z,10.60
2018-04-24T14:44:50.899Z,10.47
2018-04-24T14:47:19.109Z,11.73
2018-04-24T14:49:47.350Z,12.00
2018-04-24T14:52:15.884Z,14.37
2018-04-24T14:54:44.129Z,14.30
2018-04-24T14:57:12.558Z,10.77
2018-04-24T14:59:41.070Z,13.53
2018-04-24T15:02:09.306Z,11.90
2018-04-24T15:04:37.547Z,12.80
2018-04-24T15:07:06.089Z,10.13
2018-04-24T15:09:34.305Z,13.97
2018-04-24T15:12:02.480Z,11.70
2018-04-24T15:14:31.116Z,10.37
2018-04-24T15:16:59.361Z,12.43
2018-04-24T15:19:27.574Z,15.93
2018-04-24T15:21:56.154Z,14.20
2018-04-24T15:24:24.357Z,13.03
2018-04-24T15:26:52.600Z,17.43
2018-04-24T15:29:20.844Z,10.83
2018-04-24T15:31:50.598Z,16.80
2018-04-24T15:34:19.469Z,10.37
2018-04-24T15:36:48.279Z,11.07
2018-04-24T15:39:17.287Z,13.20
2018-04-24T15:41:45.506Z,9.73
2018-04-24T15:44:14.265Z,11.63
2018-04-24T15:46:43.240Z,10.67
2018-04-24T15:49:12.237Z,11.47
2018-04-24T15:51:40.466Z,13.43
2018-04-24T15:54:09.437Z,11.90
2018-04-24T15:56:38.250Z,12.13
2018-04-24T15:59:07.243Z,13.13
2018-04-24T16:01:35.449Z,9.60
2018-04-24T16:04:05.213Z,10.77
2018-04-24T16:06:33.643Z,8.90
2018-04-24T16:09:02.423Z,8.70
2018-04-24T16:11:30.747Z,9.47
2018-04-24T16:13:59.445Z,11.80
2018-04-24T16:16:28.301Z,11.33
2018-04-24T16:18:57.345Z,11.70
2018-04-24T16:21:25.563Z,18.13
2018-04-24T16:23:54.326Z,11.67
2018-04-24T16:26:23.264Z,9.97
2018-04-24T16:28:52.288Z,9.97
2018-04-24T16:31:20.525Z,10.43
2018-04-24T16:33:49.325Z,17.20
2018-04-24T16:36:18.110Z,12.40
2018-04-24T16:38:47.140Z,10.97
2018-04-24T16:41:15.355Z,10.77
2018-04-24T16:43:44.184Z,11.13
2018-04-24T16:46:12.933Z,10.87
2018-04-24T16:48:41.175Z,10.17
2018-04-24T16:51:09.406Z,9.87
2018-04-24T16:53:38.184Z,12.63
2018-04-24T16:56:07.130Z,9.43
2018-04-24T16:58:35.360Z,11.67
2018-04-24T17:01:04.256Z,13.97
2018-04-24T17:03:33.028Z,13.63
2018-04-24T17:06:02.169Z,14.13
2018-04-24T17:08:30.318Z,12.40
2018-04-24T17:10:59.165Z,15.23
2018-04-24T17:13:28.025Z,13.93
2018-04-24T17:15:57.024Z,17.40
2018-04-24T17:18:25.234Z,14.00
2018-04-24T17:20:54.035Z,11.63
2018-04-24T17:23:22.932Z,11.93
2018-04-24T17:25:51.888Z,14.53
2018-04-24T17:28:20.092Z,15.90
2018-04-24T17:30:49.016Z,17.77
2018-04-24T17:33:17.474Z,15.20
2018-04-24T17:35:45.680Z,14.83
2018-04-24T17:38:13.864Z,12.93
2018-04-24T17:40:42.438Z,13.00
2018-04-24T17:43:10.649Z,21.93
2018-04-24T17:45:39.002Z,17.90
2018-04-24T17:48:07.529Z,13.53
2018-04-24T17:50:35.727Z,13.33
2018-04-24T17:53:04.125Z,14.87
2018-04-24T17:55:32.722Z,14.37
2018-04-24T17:58:00.993Z,12.37
2018-04-24T18:00:29.206Z,13.37
2018-04-24T18:02:57.892Z,11.20
2018-04-24T18:05:26.175Z,11.30
2018-04-24T18:07:54.378Z,13.77
2018-04-24T18:10:22.858Z,18.50
2018-04-24T18:12:51.870Z,14.90
2018-04-24T18:15:20.084Z,9.80
2018-04-24T18:17:48.667Z,13.63
2018-04-24T18:20:17.522Z,16.03
2018-04-24T18:22:45.725Z,11.30
2018-04-24T18:25:14.114Z,10.77
2018-04-24T18:27:42.881Z,16.23
2018-04-24T18:30:11.063Z,14.67
2018-04-24T18:32:39.314Z,12.80
2018-04-24T18:35:08.859Z,11.40
2018-04-24T18:37:37.127Z,11.33
2018-04-24T18:40:05.365Z,14.43
2018-04-24T18:42:33.837Z,13.40
2018-04-24T18:45:02.057Z,11.17
2018-04-24T18:47:30.494Z,13.77
2018-04-24T18:49:58.949Z,13.17
2018-04-24T18:52:27.137Z,12.23
2018-04-24T18:54:55.891Z,10.67
2018-04-24T18:57:24.373Z,13.73
2018-04-24T18:59:52.592Z,15.40
2018-04-24T19:02:20.946Z,12.17
2018-04-24T19:04:49.538Z,13.07
2018-04-24T19:07:17.741Z,11.03
2018-04-24T19:09:46.020Z,14.23
2018-04-24T19:12:14.566Z,14.20
2018-04-24T19:14:42.791Z,9.13
2018-04-24T19:17:11.091Z,11.53
2018-04-24T19:19:39.615Z,10.80
2018-04-24T19:22:07.834Z,13.20
2018-04-24T19:24:41.911Z,12.03
2018-04-24T19:27:10.394Z,9.30
2018-04-24T19:29:39.016Z,11.07
2018-04-24T19:32:12.829Z,10.90
2018-04-24T19:34:41.128Z,8.67
2018-04-24T19:37:09.601Z,12.10
2018-04-24T19:39:44.110Z,9.60
2018-04-24T19:42:12.361Z,9.13
2018-04-24T19:44:41.086Z,11.70
2018-04-24T19:47:09.663Z,11.23
2018-04-24T19:49:44.231Z,11.63
2018-04-24T19:52:12.433Z,11.33
2018-04-24T19:54:46.960Z,9.20
2018-04-24T19:57:15.409Z,10.07
2018-04-24T19:59:44.033Z,12.20
2018-04-24T20:02:12.259Z,14.30
2018-04-24T20:04:40.484Z,11.80
2018-04-24T20:07:09.092Z,14.27
2018-04-24T20:09:37.311Z,12.40
2018-04-24T20:12:06.077Z,11.50
2018-04-24T20:14:34.557Z,12.13
2018-04-24T20:17:02.790Z,10.50
2018-04-24T20:19:31.034Z,12.33
2018-04-24T20:21:59.527Z,12.50
2018-04-24T20:24:27.799Z,10.83
2018-04-24T20:26:56.044Z,11.93
2018-04-24T20:29:24.591Z,11.20
2018-04-24T20:31:52.841Z,9.67
2018-04-24T20:34:21.056Z,10.67
2018-04-24T20:36:49.605Z,10.67
2018-04-24T20:39:17.834Z,12.77
2018-04-24T20:41:46.111Z,10.37
2018-04-24T20:44:14.807Z,13.60
2018-04-24T20:46:43.028Z,14.33
2018-04-24T20:49:11.297Z,12.80
2018-04-24T20:51:39.809Z,9.57
2018-04-24T20:54:08.012Z,11.03
2018-04-24T20:56:36.335Z,12.17
2018-04-24T20:59:04.934Z,10.37
2018-04-24T21:01:33.163Z,11.87
2018-04-24T21:04:01.385Z,11.33
2018-04-24T21:06:29.988Z,12.27
2018-04-24T21:08:58.224Z,12.27
2018-04-24T21:11:26.474Z,14.43
2018-04-24T21:13:55.130Z,10.17
2018-04-24T21:16:23.364Z,12.03
2018-04-24T21:18:51.601Z,13.67
2018-04-24T21:21:20.194Z,9.47
2018-04-24T21:23:48.387Z,10.93
2018-04-24T21:26:16.685Z,9.83
2018-04-24T21:28:45.337Z,10.83
2018-04-24T21:31:13.537Z,12.73
2018-04-24T21:33:41.942Z,12.60
2018-04-24T21:36:10.425Z,11.37
2018-04-24T21:38:38.622Z,10.47
2018-04-24T21:41:06.875Z,15.07
2018-04-24T21:43:35.420Z,11.67
2018-04-24T21:46:03.660Z,11.93
2018-04-24T21:48:32.132Z,12.30
2018-04-24T21:51:00.603Z,13.70
2018-04-24T21:53:28.821Z,11.80
2018-04-24T21:55:57.223Z,14.53
2018-04-24T21:58:25.720Z,14.77
2018-04-24T22:00:53.946Z,13.83
2018-04-24T22:03:22.279Z,14.60
2018-04-24T22:05:50.814Z,13.83
2018-04-24T22:08:19.026Z,15.43
2018-04-24T22:10:47.396Z,12.20
2018-04-24T22:13:15.920Z,13.63
2018-04-24T22:15:44.134Z,13.63
2018-04-24T22:18:13.081Z,12.30
2018-04-24T22:20:41.723Z,15.10
2018-04-24T22:23:10.452Z,15.43
2018-04-24T22:25:38.661Z,17.80
2018-04-24T22:28:06.879Z,12.20
2018-04-24T22:30:35.570Z,12.47
2018-04-24T22:33:03.826Z,12.63
2018-04-24T22:35:32.022Z,12.77
2018-04-24T22:38:00.631Z,12.03
2018-04-24T22:40:28.849Z,14.27
2018-04-24T22:42:57.137Z,15.50
2018-04-24T22:45:25.744Z,13.87
2018-04-24T22:47:53.946Z,14.13
2018-04-24T22:50:22.144Z,13.53
2018-04-24T22:52:50.770Z,11.93
2018-04-24T22:55:18.987Z,11.53
2018-04-24T22:57:47.256Z,13.27
2018-04-24T23:00:16.423Z,13.13
2018-04-24T23:02:44.629Z,17.47
2018-04-24T23:05:13.040Z,15.20
2018-04-24T23:07:41.541Z,13.50
2018-04-24T23:10:09.205Z,15.10
2018-04-24T23:12:49.193Z,15.43
2018-04-24T23:15:29.287Z,13.17
2018-04-24T23:18:09.415Z,12.77
2018-04-24T23:20:37.063Z,13.83
2018-04-24T23:23:05.312Z,13.93
2018-04-24T23:25:33.541Z,11.57
2018-04-24T23:28:02.303Z,10.73
2018-04-24T23:30:30.623Z,14.90
2018-04-24T23:32:58.795Z,13.27
2018-04-24T23:35:27.394Z,10.87
2018-04-24T23:37:55.634Z,13.97
2018-04-24T23:40:23.869Z,11.00
2018-04-24T23:42:52.520Z,9.53
2018-04-24T23:45:20.768Z,12.67
2018-04-24T23:47:48.980Z,12.10
2018-04-24T23:50:17.596Z,12.73
2018-04-24T23:52:45.866Z,11.10
2018-04-24T23:55:14.073Z,9.70
2018-04-24T23:57:42.825Z,14.67
